sensor_id;sensor_type;location;lat;lon;timestamp;P1;durP1;ratioP1;P2;durP2;ratioP2
52494;SDS011;38405;53.212;5.660;2022-10-10T00:00:17;11.60;;;7.28;;
52494;SDS011;38405;53.212;5.660;2022-10-10T00:02:43;14.30;;;8.65;;
52494;SDS011;38405;53.212;5.660;2022-10-10T00:05:09;11.82;;;8.27;;
52494;SDS011;38405;53.212;5.660;2022-10-10T00:07:34;15.80;;;9.20;;
52494;SDS011;38405;53.212;5.660;2022-10-10T00:10:00;11.60;;;8.52;;
52494;SDS011;38405;53.212;5.660;2022-10-10T00:12:26;17.70;;;8.88;;
52494;SDS011;38405;53.212;5.660;2022-10-10T00:14:51;14.20;;;7.85;;
52494;SDS011;38405;53.212;5.660;2022-10-10T00:17:17;15.30;;;7.55;;
52494;SDS011;38405;53.212;5.660;2022-10-10T00:19:42;12.75;;;8.25;;
52494;SDS011;38405;53.212;5.660;2022-10-10T00:22:08;12.55;;;8.18;;
52494;SDS011;38405;53.212;5.660;2022-10-10T00:24:34;10.95;;;8.18;;
52494;SDS011;38405;53.212;5.660;2022-10-10T00:26:59;11.32;;;8.85;;
52494;SDS011;38405;53.212;5.660;2022-10-10T00:29:25;11.52;;;7.85;;
52494;SDS011;38405;53.212;5.660;2022-10-10T00:31:50;10.57;;;8.20;;
52494;SDS011;38405;53.212;5.660;2022-10-10T00:34:16;12.73;;;8.20;;
52494;SDS011;38405;53.212;5.660;2022-10-10T00:36:42;13.93;;;8.38;;
52494;SDS011;38405;53.212;5.660;2022-10-10T00:39:07;16.00;;;8.35;;
52494;SDS011;38405;53.212;5.660;2022-10-10T00:41:33;12.57;;;8.75;;
52494;SDS011;38405;53.212;5.660;2022-10-10T00:44:03;11.90;;;8.18;;
52494;SDS011;38405;53.212;5.660;2022-10-10T00:46:33;13.07;;;7.82;;
52494;SDS011;38405;53.212;5.660;2022-10-10T00:48:59;13.73;;;8.18;;
52494;SDS011;38405;53.212;5.660;2022-10-10T00:51:26;14.45;;;8.68;;
52494;SDS011;38405;53.212;5.660;2022-10-10T00:53:55;18.10;;;8.73;;
52494;SDS011;38405;53.212;5.660;2022-10-10T00:56:27;12.30;;;8.20;;
52494;SDS011;38405;53.212;5.660;2022-10-10T00:58:58;14.02;;;8.23;;
52494;SDS011;38405;53.212;5.660;2022-10-10T01:01:26;10.63;;;7.68;;
52494;SDS011;38405;53.212;5.660;2022-10-10T01:03:55;10.20;;;7.82;;
52494;SDS011;38405;53.212;5.660;2022-10-10T01:06:22;13.35;;;8.60;;
52494;SDS011;38405;53.212;5.660;2022-10-10T01:08:48;9.73;;;7.97;;
52494;SDS011;38405;53.212;5.660;2022-10-10T01:17:03;14.52;;;8.45;;
52494;SDS011;38405;53.212;5.660;2022-10-10T01:22:45;13.77;;;8.55;;
52494;SDS011;38405;53.212;5.660;2022-10-10T01:25:31;13.32;;;8.93;;
52494;SDS011;38405;53.212;5.660;2022-10-10T01:28:41;12.00;;;8.52;;
52494;SDS011;38405;53.212;5.660;2022-10-10T01:31:17;12.25;;;8.73;;
52494;SDS011;38405;53.212;5.660;2022-10-10T01:39:38;13.82;;;9.00;;
52494;SDS011;38405;53.212;5.660;2022-10-10T01:42:10;14.25;;;8.73;;
52494;SDS011;38405;53.212;5.660;2022-10-10T01:44:55;12.45;;;9.50;;
52494;SDS011;38405;53.212;5.660;2022-10-10T01:47:21;13.50;;;9.15;;
52494;SDS011;38405;53.212;5.660;2022-10-10T01:49:51;12.50;;;8.52;;
52494;SDS011;38405;53.212;5.660;2022-10-10T01:52:26;13.82;;;9.05;;
52494;SDS011;38405;53.212;5.660;2022-10-10T02:01:01;14.23;;;8.77;;
52494;SDS011;38405;53.212;5.660;2022-10-10T02:03:42;11.82;;;8.82;;
52494;SDS011;38405;53.212;5.660;2022-10-10T02:06:30;10.75;;;8.02;;
52494;SDS011;38405;53.212;5.660;2022-10-10T02:09:07;15.90;;;8.75;;
52494;SDS011;38405;53.212;5.660;2022-10-10T02:11:38;10.52;;;8.90;;
52494;SDS011;38405;53.212;5.660;2022-10-10T02:14:11;13.13;;;8.77;;
52494;SDS011;38405;53.212;5.660;2022-10-10T02:16:40;12.70;;;8.63;;
52494;SDS011;38405;53.212;5.660;2022-10-10T02:19:09;13.63;;;8.77;;
52494;SDS011;38405;53.212;5.660;2022-10-10T02:21:40;11.65;;;8.77;;
52494;SDS011;38405;53.212;5.660;2022-10-10T02:24:07;17.60;;;8.15;;
52494;SDS011;38405;53.212;5.660;2022-10-10T02:26:34;13.77;;;9.05;;
52494;SDS011;38405;53.212;5.660;2022-10-10T02:32:13;14.05;;;9.02;;
52494;SDS011;38405;53.212;5.660;2022-10-10T02:34:21;13.20;;;8.80;;
52494;SDS011;38405;53.212;5.660;2022-10-10T02:36:51;12.30;;;9.25;;
52494;SDS011;38405;53.212;5.660;2022-10-10T02:39:21;14.30;;;8.65;;
52494;SDS011;38405;53.212;5.660;2022-10-10T02:41:50;17.73;;;9.43;;
52494;SDS011;38405;53.212;5.660;2022-10-10T02:44:17;16.48;;;8.65;;
52494;SDS011;38405;53.212;5.660;2022-10-10T02:46:44;13.73;;;9.05;;
52494;SDS011;38405;53.212;5.660;2022-10-10T02:49:10;12.32;;;9.32;;
52494;SDS011;38405;53.212;5.660;2022-10-10T02:51:36;13.50;;;9.27;;
52494;SDS011;38405;53.212;5.660;2022-10-10T02:54:03;11.27;;;8.90;;
52494;SDS011;38405;53.212;5.660;2022-10-10T02:56:29;15.48;;;8.82;;
52494;SDS011;38405;53.212;5.660;2022-10-10T02:58:55;11.60;;;8.48;;
52494;SDS011;38405;53.212;5.660;2022-10-10T03:01:21;13.15;;;9.70;;
52494;SDS011;38405;53.212;5.660;2022-10-10T03:03:48;13.90;;;9.57;;
52494;SDS011;38405;53.212;5.660;2022-10-10T03:06:13;12.73;;;9.30;;
52494;SDS011;38405;53.212;5.660;2022-10-10T03:08:39;13.05;;;8.70;;
52494;SDS011;38405;53.212;5.660;2022-10-10T03:11:05;13.88;;;9.10;;
52494;SDS011;38405;53.212;5.660;2022-10-10T03:13:31;15.90;;;9.27;;
52494;SDS011;38405;53.212;5.660;2022-10-10T03:15:57;13.32;;;8.98;;
52494;SDS011;38405;53.212;5.660;2022-10-10T03:18:23;12.73;;;8.80;;
52494;SDS011;38405;53.212;5.660;2022-10-10T03:20:52;11.00;;;8.93;;
52494;SDS011;38405;53.212;5.660;2022-10-10T03:23:20;12.20;;;8.30;;
52494;SDS011;38405;53.212;5.660;2022-10-10T03:25:46;18.85;;;9.20;;
52494;SDS011;38405;53.212;5.660;2022-10-10T03:28:12;10.88;;;8.65;;
52494;SDS011;38405;53.212;5.660;2022-10-10T03:30:38;12.88;;;9.05;;
52494;SDS011;38405;53.212;5.660;2022-10-10T03:33:04;11.75;;;8.20;;
52494;SDS011;38405;53.212;5.660;2022-10-10T03:35:30;11.90;;;8.82;;
52494;SDS011;38405;53.212;5.660;2022-10-10T03:37:56;9.73;;;8.27;;
52494;SDS011;38405;53.212;5.660;2022-10-10T03:40:23;18.55;;;8.88;;
52494;SDS011;38405;53.212;5.660;2022-10-10T03:42:49;12.88;;;8.85;;
52494;SDS011;38405;53.212;5.660;2022-10-10T03:45:14;13.23;;;8.65;;
52494;SDS011;38405;53.212;5.660;2022-10-10T03:47:40;12.65;;;7.93;;
52494;SDS011;38405;53.212;5.660;2022-10-10T03:50:06;11.00;;;8.35;;
52494;SDS011;38405;53.212;5.660;2022-10-10T03:52:32;12.70;;;8.88;;
52494;SDS011;38405;53.212;5.660;2022-10-10T03:54:57;12.20;;;8.50;;
52494;SDS011;38405;53.212;5.660;2022-10-10T03:57:23;13.85;;;8.75;;
52494;SDS011;38405;53.212;5.660;2022-10-10T03:59:49;14.00;;;8.23;;
52494;SDS011;38405;53.212;5.660;2022-10-10T04:02:14;14.43;;;9.32;;
52494;SDS011;38405;53.212;5.660;2022-10-10T04:04:40;14.65;;;8.48;;
52494;SDS011;38405;53.212;5.660;2022-10-10T04:07:05;15.88;;;9.10;;
52494;SDS011;38405;53.212;5.660;2022-10-10T04:09:31;13.25;;;8.18;;
52494;SDS011;38405;53.212;5.660;2022-10-10T04:11:57;12.38;;;8.90;;
52494;SDS011;38405;53.212;5.660;2022-10-10T04:14:23;13.43;;;8.55;;
52494;SDS011;38405;53.212;5.660;2022-10-10T04:16:49;14.02;;;8.25;;
52494;SDS011;38405;53.212;5.660;2022-10-10T04:19:15;10.18;;;8.30;;
52494;SDS011;38405;53.212;5.660;2022-10-10T04:21:41;14.65;;;9.13;;
52494;SDS011;38405;53.212;5.660;2022-10-10T04:24:07;15.63;;;9.02;;
52494;SDS011;38405;53.212;5.660;2022-10-10T04:26:33;11.88;;;8.18;;
52494;SDS011;38405;53.212;5.660;2022-10-10T04:28:58;13.90;;;9.05;;
52494;SDS011;38405;53.212;5.660;2022-10-10T04:31:24;14.52;;;8.82;;
52494;SDS011;38405;53.212;5.660;2022-10-10T04:33:50;9.82;;;8.40;;
52494;SDS011;38405;53.212;5.660;2022-10-10T04:36:16;13.68;;;8.02;;
52494;SDS011;38405;53.212;5.660;2022-10-10T04:38:42;12.40;;;8.80;;
52494;SDS011;38405;53.212;5.660;2022-10-10T04:41:08;14.63;;;9.15;;
52494;SDS011;38405;53.212;5.660;2022-10-10T04:43:34;17.75;;;8.50;;
52494;SDS011;38405;53.212;5.660;2022-10-10T04:45:59;12.68;;;8.85;;
52494;SDS011;38405;53.212;5.660;2022-10-10T04:48:25;16.95;;;8.98;;
52494;SDS011;38405;53.212;5.660;2022-10-10T04:50:51;14.02;;;8.77;;
52494;SDS011;38405;53.212;5.660;2022-10-10T04:53:18;12.60;;;8.13;;
52494;SDS011;38405;53.212;5.660;2022-10-10T04:55:43;14.02;;;8.80;;
52494;SDS011;38405;53.212;5.660;2022-10-10T04:58:09;12.75;;;8.93;;
52494;SDS011;38405;53.212;5.660;2022-10-10T05:00:36;12.95;;;8.40;;
52494;SDS011;38405;53.212;5.660;2022-10-10T05:03:02;13.13;;;7.85;;
52494;SDS011;38405;53.212;5.660;2022-10-10T05:05:28;10.07;;;7.78;;
52494;SDS011;38405;53.212;5.660;2022-10-10T05:07:54;14.98;;;7.55;;
52494;SDS011;38405;53.212;5.660;2022-10-10T05:10:19;13.73;;;8.80;;
52494;SDS011;38405;53.212;5.660;2022-10-10T05:12:45;15.80;;;9.48;;
52494;SDS011;38405;53.212;5.660;2022-10-10T05:15:10;21.50;;;9.88;;
52494;SDS011;38405;53.212;5.660;2022-10-10T05:17:36;15.07;;;8.93;;
52494;SDS011;38405;53.212;5.660;2022-10-10T05:20:02;14.95;;;8.80;;
52494;SDS011;38405;53.212;5.660;2022-10-10T05:22:28;13.95;;;8.60;;
52494;SDS011;38405;53.212;5.660;2022-10-10T05:24:54;13.23;;;8.15;;
52494;SDS011;38405;53.212;5.660;2022-10-10T05:27:20;13.77;;;8.63;;
52494;SDS011;38405;53.212;5.660;2022-10-10T05:29:46;11.45;;;7.70;;
52494;SDS011;38405;53.212;5.660;2022-10-10T05:32:11;9.63;;;7.90;;
52494;SDS011;38405;53.212;5.660;2022-10-10T05:34:37;12.65;;;8.05;;
52494;SDS011;38405;53.212;5.660;2022-10-10T05:37:03;10.07;;;7.78;;
52494;SDS011;38405;53.212;5.660;2022-10-10T05:39:28;11.63;;;8.10;;
52494;SDS011;38405;53.212;5.660;2022-10-10T05:41:54;14.02;;;7.45;;
52494;SDS011;38405;53.212;5.660;2022-10-10T05:44:19;12.23;;;8.52;;
52494;SDS011;38405;53.212;5.660;2022-10-10T05:46:45;12.18;;;8.27;;
52494;SDS011;38405;53.212;5.660;2022-10-10T05:49:11;12.40;;;7.88;;
52494;SDS011;38405;53.212;5.660;2022-10-10T05:51:36;11.85;;;8.13;;
52494;SDS011;38405;53.212;5.660;2022-10-10T05:54:02;9.38;;;7.53;;
52494;SDS011;38405;53.212;5.660;2022-10-10T05:56:29;10.30;;;7.70;;
52494;SDS011;38405;53.212;5.660;2022-10-10T05:58:54;15.02;;;7.90;;
52494;SDS011;38405;53.212;5.660;2022-10-10T06:01:20;11.98;;;7.60;;
52494;SDS011;38405;53.212;5.660;2022-10-10T06:03:46;14.48;;;8.20;;
52494;SDS011;38405;53.212;5.660;2022-10-10T06:06:17;12.57;;;8.18;;
52494;SDS011;38405;53.212;5.660;2022-10-10T06:08:43;12.38;;;8.57;;
52494;SDS011;38405;53.212;5.660;2022-10-10T06:11:08;10.98;;;7.72;;
52494;SDS011;38405;53.212;5.660;2022-10-10T06:13:35;11.43;;;8.73;;
52494;SDS011;38405;53.212;5.660;2022-10-10T06:16:02;15.73;;;8.07;;
52494;SDS011;38405;53.212;5.660;2022-10-10T06:18:28;10.00;;;7.55;;
52494;SDS011;38405;53.212;5.660;2022-10-10T06:20:54;17.73;;;7.40;;
52494;SDS011;38405;53.212;5.660;2022-10-10T06:23:19;14.68;;;8.32;;
52494;SDS011;38405;53.212;5.660;2022-10-10T06:25:45;13.93;;;8.18;;
52494;SDS011;38405;53.212;5.660;2022-10-10T06:28:11;14.10;;;8.07;;
52494;SDS011;38405;53.212;5.660;2022-10-10T06:30:40;12.50;;;7.70;;
52494;SDS011;38405;53.212;5.660;2022-10-10T06:33:07;11.73;;;7.30;;
52494;SDS011;38405;53.212;5.660;2022-10-10T06:35:36;12.18;;;8.25;;
52494;SDS011;38405;53.212;5.660;2022-10-10T06:38:04;11.82;;;7.70;;
52494;SDS011;38405;53.212;5.660;2022-10-10T06:40:29;11.77;;;7.85;;
52494;SDS011;38405;53.212;5.660;2022-10-10T06:42:55;14.50;;;7.18;;
52494;SDS011;38405;53.212;5.660;2022-10-10T06:45:20;14.05;;;8.13;;
52494;SDS011;38405;53.212;5.660;2022-10-10T06:47:48;10.88;;;7.90;;
52494;SDS011;38405;53.212;5.660;2022-10-10T06:50:14;9.55;;;7.80;;
52494;SDS011;38405;53.212;5.660;2022-10-10T06:52:39;13.43;;;7.70;;
52494;SDS011;38405;53.212;5.660;2022-10-10T06:55:05;9.88;;;7.40;;
52494;SDS011;38405;53.212;5.660;2022-10-10T06:57:31;10.82;;;7.95;;
52494;SDS011;38405;53.212;5.660;2022-10-10T06:59:57;11.90;;;8.30;;
52494;SDS011;38405;53.212;5.660;2022-10-10T07:02:22;13.68;;;8.18;;
52494;SDS011;38405;53.212;5.660;2022-10-10T07:04:48;13.23;;;8.10;;
52494;SDS011;38405;53.212;5.660;2022-10-10T07:07:14;13.75;;;7.60;;
52494;SDS011;38405;53.212;5.660;2022-10-10T07:09:40;10.10;;;6.97;;
52494;SDS011;38405;53.212;5.660;2022-10-10T07:12:06;10.43;;;7.60;;
52494;SDS011;38405;53.212;5.660;2022-10-10T07:14:31;11.55;;;7.75;;
52494;SDS011;38405;53.212;5.660;2022-10-10T07:16:57;14.68;;;7.35;;
52494;SDS011;38405;53.212;5.660;2022-10-10T07:19:22;13.18;;;7.22;;
52494;SDS011;38405;53.212;5.660;2022-10-10T07:21:49;10.55;;;7.25;;
52494;SDS011;38405;53.212;5.660;2022-10-10T07:24:15;13.32;;;7.00;;
52494;SDS011;38405;53.212;5.660;2022-10-10T07:26:40;11.27;;;6.60;;
52494;SDS011;38405;53.212;5.660;2022-10-10T07:29:06;10.43;;;7.28;;
52494;SDS011;38405;53.212;5.660;2022-10-10T07:31:32;8.98;;;6.63;;
52494;SDS011;38405;53.212;5.660;2022-10-10T07:33:58;12.38;;;6.68;;
52494;SDS011;38405;53.212;5.660;2022-10-10T07:36:23;11.73;;;7.07;;
52494;SDS011;38405;53.212;5.660;2022-10-10T07:38:52;8.98;;;6.85;;
52494;SDS011;38405;53.212;5.660;2022-10-10T07:41:19;10.63;;;6.85;;
52494;SDS011;38405;53.212;5.660;2022-10-10T07:43:45;12.48;;;6.90;;
52494;SDS011;38405;53.212;5.660;2022-10-10T07:46:14;8.25;;;6.53;;
52494;SDS011;38405;53.212;5.660;2022-10-10T07:48:42;11.13;;;6.85;;
52494;SDS011;38405;53.212;5.660;2022-10-10T07:51:08;9.50;;;6.85;;
52494;SDS011;38405;53.212;5.660;2022-10-10T07:53:34;12.15;;;7.55;;
52494;SDS011;38405;53.212;5.660;2022-10-10T07:56:02;9.75;;;6.78;;
52494;SDS011;38405;53.212;5.660;2022-10-10T07:58:29;10.48;;;6.65;;
52494;SDS011;38405;53.212;5.660;2022-10-10T08:01:05;11.95;;;7.45;;
52494;SDS011;38405;53.212;5.660;2022-10-10T08:03:31;10.55;;;7.43;;
52494;SDS011;38405;53.212;5.660;2022-10-10T08:05:57;12.35;;;7.55;;
52494;SDS011;38405;53.212;5.660;2022-10-10T08:08:26;9.27;;;6.85;;
52494;SDS011;38405;53.212;5.660;2022-10-10T08:10:51;8.57;;;7.05;;
52494;SDS011;38405;53.212;5.660;2022-10-10T08:13:17;12.23;;;8.38;;
52494;SDS011;38405;53.212;5.660;2022-10-10T08:15:43;12.98;;;7.50;;
52494;SDS011;38405;53.212;5.660;2022-10-10T08:18:08;13.70;;;7.80;;
52494;SDS011;38405;53.212;5.660;2022-10-10T08:20:34;12.07;;;8.07;;
52494;SDS011;38405;53.212;5.660;2022-10-10T08:22:59;18.55;;;8.55;;
52494;SDS011;38405;53.212;5.660;2022-10-10T08:25:25;12.07;;;8.02;;
52494;SDS011;38405;53.212;5.660;2022-10-10T08:27:51;16.08;;;8.13;;
52494;SDS011;38405;53.212;5.660;2022-10-10T08:30:17;12.25;;;8.25;;
52494;SDS011;38405;53.212;5.660;2022-10-10T08:32:43;13.30;;;8.38;;
52494;SDS011;38405;53.212;5.660;2022-10-10T08:35:08;18.95;;;8.60;;
52494;SDS011;38405;53.212;5.660;2022-10-10T08:37:34;10.73;;;7.70;;
52494;SDS011;38405;53.212;5.660;2022-10-10T08:39:59;13.60;;;8.43;;
52494;SDS011;38405;53.212;5.660;2022-10-10T08:42:38;13.05;;;8.02;;
52494;SDS011;38405;53.212;5.660;2022-10-10T08:45:10;12.57;;;7.90;;
52494;SDS011;38405;53.212;5.660;2022-10-10T08:56:06;12.27;;;7.72;;
52494;SDS011;38405;53.212;5.660;2022-10-10T08:58:39;13.77;;;7.68;;
52494;SDS011;38405;53.212;5.660;2022-10-10T09:01:17;14.85;;;7.78;;
52494;SDS011;38405;53.212;5.660;2022-10-10T09:09:18;17.45;;;8.05;;
52494;SDS011;38405;53.212;5.660;2022-10-10T09:17:18;13.55;;;8.70;;
52494;SDS011;38405;53.212;5.660;2022-10-10T09:22:51;11.00;;;7.32;;
52494;SDS011;38405;53.212;5.660;2022-10-10T09:25:22;15.85;;;8.20;;
52494;SDS011;38405;53.212;5.660;2022-10-10T09:28:09;14.93;;;7.30;;
52494;SDS011;38405;53.212;5.660;2022-10-10T09:30:40;14.23;;;7.93;;
52494;SDS011;38405;53.212;5.660;2022-10-10T09:33:22;10.68;;;7.32;;
52494;SDS011;38405;53.212;5.660;2022-10-10T09:35:53;18.35;;;8.07;;
52494;SDS011;38405;53.212;5.660;2022-10-10T09:41:02;13.88;;;7.55;;
52494;SDS011;38405;53.212;5.660;2022-10-10T09:43:34;11.20;;;7.28;;
52494;SDS011;38405;53.212;5.660;2022-10-10T09:46:01;10.32;;;6.75;;
52494;SDS011;38405;53.212;5.660;2022-10-10T09:48:37;13.60;;;7.63;;
52494;SDS011;38405;53.212;5.660;2022-10-10T09:51:10;14.77;;;7.63;;
52494;SDS011;38405;53.212;5.660;2022-10-10T09:53:38;13.27;;;7.13;;
52494;SDS011;38405;53.212;5.660;2022-10-10T09:56:06;14.45;;;8.10;;
52494;SDS011;38405;53.212;5.660;2022-10-10T09:58:39;13.20;;;7.32;;
52494;SDS011;38405;53.212;5.660;2022-10-10T10:01:14;15.80;;;8.00;;
52494;SDS011;38405;53.212;5.660;2022-10-10T10:03:42;13.55;;;7.22;;
52494;SDS011;38405;53.212;5.660;2022-10-10T10:06:09;13.82;;;7.57;;
52494;SDS011;38405;53.212;5.660;2022-10-10T10:08:37;15.80;;;7.88;;
52494;SDS011;38405;53.212;5.660;2022-10-10T10:11:03;13.20;;;8.48;;
52494;SDS011;38405;53.212;5.660;2022-10-10T10:13:30;13.10;;;7.35;;
52494;SDS011;38405;53.212;5.660;2022-10-10T10:16:05;16.25;;;7.18;;
52494;SDS011;38405;53.212;5.660;2022-10-10T10:18:37;13.48;;;7.20;;
52494;SDS011;38405;53.212;5.660;2022-10-10T10:23:39;14.65;;;7.95;;
52494;SDS011;38405;53.212;5.660;2022-10-10T10:28:51;13.80;;;8.43;;
52494;SDS011;38405;53.212;5.660;2022-10-10T10:42:36;10.95;;;8.07;;
52494;SDS011;38405;53.212;5.660;2022-10-10T10:55:50;14.98;;;7.88;;
52494;SDS011;38405;53.212;5.660;2022-10-10T10:58:41;19.05;;;8.27;;
52494;SDS011;38405;53.212;5.660;2022-10-10T11:01:31;13.68;;;8.15;;
52494;SDS011;38405;53.212;5.660;2022-10-10T11:04:08;18.00;;;8.07;;
52494;SDS011;38405;53.212;5.660;2022-10-10T11:10:31;13.05;;;7.50;;
52494;SDS011;38405;53.212;5.660;2022-10-10T11:15:36;21.85;;;7.50;;
52494;SDS011;38405;53.212;5.660;2022-10-10T11:18:40;16.08;;;7.20;;
52494;SDS011;38405;53.212;5.660;2022-10-10T11:21:11;14.40;;;7.10;;
52494;SDS011;38405;53.212;5.660;2022-10-10T11:23:39;10.55;;;5.95;;
52494;SDS011;38405;53.212;5.660;2022-10-10T11:26:11;16.42;;;5.88;;
52494;SDS011;38405;53.212;5.660;2022-10-10T11:28:49;17.02;;;6.75;;
52494;SDS011;38405;53.212;5.660;2022-10-10T11:31:26;14.52;;;6.60;;
52494;SDS011;38405;53.212;5.660;2022-10-10T11:34:09;12.37;;;6.63;;
52494;SDS011;38405;53.212;5.660;2022-10-10T11:36:49;14.63;;;6.82;;
52494;SDS011;38405;53.212;5.660;2022-10-10T11:39:22;15.90;;;5.85;;
52494;SDS011;38405;53.212;5.660;2022-10-10T11:41:55;14.65;;;5.55;;
52494;SDS011;38405;53.212;5.660;2022-10-10T11:44:39;11.77;;;6.38;;
52494;SDS011;38405;53.212;5.660;2022-10-10T11:47:12;13.77;;;5.95;;
52494;SDS011;38405;53.212;5.660;2022-10-10T11:49:54;14.88;;;4.82;;
52494;SDS011;38405;53.212;5.660;2022-10-10T11:55:30;9.02;;;3.67;;
52494;SDS011;38405;53.212;5.660;2022-10-10T12:00:29;11.80;;;3.30;;
52494;SDS011;38405;53.212;5.660;2022-10-10T12:02:59;11.00;;;3.25;;
52494;SDS011;38405;53.212;5.660;2022-10-10T12:05:26;9.25;;;2.75;;
52494;SDS011;38405;53.212;5.660;2022-10-10T12:13:44;2.75;;;1.58;;
52494;SDS011;38405;53.212;5.660;2022-10-10T12:16:18;7.20;;;2.63;;
52494;SDS011;38405;53.212;5.660;2022-10-10T12:18:50;4.60;;;1.58;;
52494;SDS011;38405;53.212;5.660;2022-10-10T12:21:19;9.03;;;1.87;;
52494;SDS011;38405;53.212;5.660;2022-10-10T12:23:49;8.63;;;1.60;;
52494;SDS011;38405;53.212;5.660;2022-10-10T12:29:16;6.13;;;1.60;;
52494;SDS011;38405;53.212;5.660;2022-10-10T12:35:25;12.18;;;1.95;;
52494;SDS011;38405;53.212;5.660;2022-10-10T12:38:39;14.68;;;1.98;;
52494;SDS011;38405;53.212;5.660;2022-10-10T12:41:03;11.52;;;2.03;;
52494;SDS011;38405;53.212;5.660;2022-10-10T12:48:32;12.00;;;1.95;;
52494;SDS011;38405;53.212;5.660;2022-10-10T12:50:59;10.45;;;2.13;;
52494;SDS011;38405;53.212;5.660;2022-10-10T12:53:27;11.93;;;2.20;;
52494;SDS011;38405;53.212;5.660;2022-10-10T12:55:55;9.80;;;1.95;;
52494;SDS011;38405;53.212;5.660;2022-10-10T12:58:32;15.65;;;2.10;;
52494;SDS011;38405;53.212;5.660;2022-10-10T13:01:06;17.17;;;2.60;;
52494;SDS011;38405;53.212;5.660;2022-10-10T13:03:46;13.10;;;2.05;;
52494;SDS011;38405;53.212;5.660;2022-10-10T13:06:32;10.43;;;2.00;;
52494;SDS011;38405;53.212;5.660;2022-10-10T13:09:10;10.98;;;2.72;;
52494;SDS011;38405;53.212;5.660;2022-10-10T13:11:55;16.27;;;2.85;;
52494;SDS011;38405;53.212;5.660;2022-10-10T13:14:23;19.48;;;2.40;;
52494;SDS011;38405;53.212;5.660;2022-10-10T13:16:50;10.57;;;2.15;;
52494;SDS011;38405;53.212;5.660;2022-10-10T13:19:18;10.95;;;2.33;;
52494;SDS011;38405;53.212;5.660;2022-10-10T13:21:43;10.25;;;1.75;;
52494;SDS011;38405;53.212;5.660;2022-10-10T13:24:14;17.70;;;3.35;;
52494;SDS011;38405;53.212;5.660;2022-10-10T13:26:46;11.02;;;1.95;;
52494;SDS011;38405;53.212;5.660;2022-10-10T13:29:18;17.35;;;2.30;;
52494;SDS011;38405;53.212;5.660;2022-10-10T13:31:49;11.80;;;1.85;;
52494;SDS011;38405;53.212;5.660;2022-10-10T13:34:17;14.57;;;2.80;;
52494;SDS011;38405;53.212;5.660;2022-10-10T13:36:51;21.90;;;2.78;;
52494;SDS011;38405;53.212;5.660;2022-10-10T13:39:21;16.27;;;2.42;;
52494;SDS011;38405;53.212;5.660;2022-10-10T13:41:47;15.85;;;2.45;;
52494;SDS011;38405;53.212;5.660;2022-10-10T13:44:15;16.73;;;2.40;;
52494;SDS011;38405;53.212;5.660;2022-10-10T13:46:46;18.43;;;2.37;;
52494;SDS011;38405;53.212;5.660;2022-10-10T13:49:18;16.77;;;2.50;;
52494;SDS011;38405;53.212;5.660;2022-10-10T13:52:02;21.23;;;3.40;;
52494;SDS011;38405;53.212;5.660;2022-10-10T13:54:45;18.58;;;2.65;;
52494;SDS011;38405;53.212;5.660;2022-10-10T13:57:16;21.70;;;2.97;;
52494;SDS011;38405;53.212;5.660;2022-10-10T13:59:46;15.63;;;2.92;;
52494;SDS011;38405;53.212;5.660;2022-10-10T14:02:22;15.35;;;2.63;;
52494;SDS011;38405;53.212;5.660;2022-10-10T14:04:55;13.57;;;3.13;;
52494;SDS011;38405;53.212;5.660;2022-10-10T14:07:22;8.50;;;2.40;;
52494;SDS011;38405;53.212;5.660;2022-10-10T14:09:57;10.93;;;2.25;;
52494;SDS011;38405;53.212;5.660;2022-10-10T14:15:00;15.73;;;3.15;;
52494;SDS011;38405;53.212;5.660;2022-10-10T14:17:27;15.40;;;2.75;;
52494;SDS011;38405;53.212;5.660;2022-10-10T14:19:53;14.50;;;2.38;;
52494;SDS011;38405;53.212;5.660;2022-10-10T14:22:19;17.77;;;2.78;;
52494;SDS011;38405;53.212;5.660;2022-10-10T14:24:46;17.38;;;2.72;;
52494;SDS011;38405;53.212;5.660;2022-10-10T14:29:44;13.05;;;3.25;;
52494;SDS011;38405;53.212;5.660;2022-10-10T14:32:11;14.13;;;2.30;;
52494;SDS011;38405;53.212;5.660;2022-10-10T14:34:37;18.30;;;2.78;;
52494;SDS011;38405;53.212;5.660;2022-10-10T14:37:03;15.63;;;2.33;;
52494;SDS011;38405;53.212;5.660;2022-10-10T14:39:29;15.52;;;2.42;;
52494;SDS011;38405;53.212;5.660;2022-10-10T14:41:56;16.88;;;3.08;;
52494;SDS011;38405;53.212;5.660;2022-10-10T14:44:22;13.85;;;2.85;;
52494;SDS011;38405;53.212;5.660;2022-10-10T14:46:48;18.42;;;2.28;;
52494;SDS011;38405;53.212;5.660;2022-10-10T14:49:17;11.38;;;2.40;;
52494;SDS011;38405;53.212;5.660;2022-10-10T14:51:45;12.20;;;1.95;;
52494;SDS011;38405;53.212;5.660;2022-10-10T14:54:12;12.82;;;2.70;;
52494;SDS011;38405;53.212;5.660;2022-10-10T14:56:37;12.60;;;2.70;;
52494;SDS011;38405;53.212;5.660;2022-10-10T14:59:08;17.70;;;2.28;;
52494;SDS011;38405;53.212;5.660;2022-10-10T15:01:43;16.23;;;2.50;;
52494;SDS011;38405;53.212;5.660;2022-10-10T15:04:12;11.38;;;2.42;;
52494;SDS011;38405;53.212;5.660;2022-10-10T15:06:38;13.35;;;2.60;;
52494;SDS011;38405;53.212;5.660;2022-10-10T15:09:04;9.55;;;2.22;;
52494;SDS011;38405;53.212;5.660;2022-10-10T15:11:29;14.68;;;2.65;;
52494;SDS011;38405;53.212;5.660;2022-10-10T15:13:55;14.68;;;2.63;;
52494;SDS011;38405;53.212;5.660;2022-10-10T15:16:21;17.65;;;2.60;;
52494;SDS011;38405;53.212;5.660;2022-10-10T15:18:47;12.27;;;2.50;;
52494;SDS011;38405;53.212;5.660;2022-10-10T15:21:12;14.38;;;2.33;;
52494;SDS011;38405;53.212;5.660;2022-10-10T15:23:38;12.23;;;2.25;;
52494;SDS011;38405;53.212;5.660;2022-10-10T15:26:04;11.75;;;2.72;;
52494;SDS011;38405;53.212;5.660;2022-10-10T15:28:30;12.30;;;1.98;;
52494;SDS011;38405;53.212;5.660;2022-10-10T15:30:56;16.08;;;2.33;;
52494;SDS011;38405;53.212;5.660;2022-10-10T15:33:22;13.10;;;2.58;;
52494;SDS011;38405;53.212;5.660;2022-10-10T15:36:08;17.27;;;3.40;;
52494;SDS011;38405;53.212;5.660;2022-10-10T15:38:34;14.00;;;2.90;;
52494;SDS011;38405;53.212;5.660;2022-10-10T15:41:04;11.15;;;2.03;;
52494;SDS011;38405;53.212;5.660;2022-10-10T15:43:40;16.45;;;2.75;;
52494;SDS011;38405;53.212;5.660;2022-10-10T15:46:08;9.88;;;2.15;;
52494;SDS011;38405;53.212;5.660;2022-10-10T15:48:34;21.02;;;3.10;;
52494;SDS011;38405;53.212;5.660;2022-10-10T15:50:59;15.57;;;2.97;;
52494;SDS011;38405;53.212;5.660;2022-10-10T15:53:28;11.60;;;2.13;;
52494;SDS011;38405;53.212;5.660;2022-10-10T15:55:54;26.13;;;3.33;;
52494;SDS011;38405;53.212;5.660;2022-10-10T15:58:20;15.38;;;2.85;;
52494;SDS011;38405;53.212;5.660;2022-10-10T16:00:46;11.75;;;2.45;;
52494;SDS011;38405;53.212;5.660;2022-10-10T16:03:11;12.05;;;2.17;;
52494;SDS011;38405;53.212;5.660;2022-10-10T16:05:40;16.55;;;2.25;;
52494;SDS011;38405;53.212;5.660;2022-10-10T16:08:07;15.13;;;2.50;;
52494;SDS011;38405;53.212;5.660;2022-10-10T16:10:40;13.27;;;2.25;;
52494;SDS011;38405;53.212;5.660;2022-10-10T16:13:07;18.40;;;3.20;;
52494;SDS011;38405;53.212;5.660;2022-10-10T16:15:36;16.13;;;2.63;;
52494;SDS011;38405;53.212;5.660;2022-10-10T16:18:01;15.93;;;3.28;;
52494;SDS011;38405;53.212;5.660;2022-10-10T16:20:27;17.23;;;3.13;;
52494;SDS011;38405;53.212;5.660;2022-10-10T16:22:53;13.60;;;2.40;;
52494;SDS011;38405;53.212;5.660;2022-10-10T16:25:19;13.93;;;2.33;;
52494;SDS011;38405;53.212;5.660;2022-10-10T16:27:44;20.00;;;2.30;;
52494;SDS011;38405;53.212;5.660;2022-10-10T16:30:10;11.60;;;2.35;;
52494;SDS011;38405;53.212;5.660;2022-10-10T16:32:36;15.05;;;2.42;;
52494;SDS011;38405;53.212;5.660;2022-10-10T16:35:01;19.42;;;2.83;;